createdAt,value
2022-07-25T00:00:22.544Z,20.79
2022-07-25T00:03:25.224Z,20.77
2022-07-25T00:06:31.284Z,20.79
2022-07-25T00:09:34.008Z,20.81
2022-07-25T00:12:38.534Z,20.82
2022-07-25T00:15:41.355Z,20.81
2022-07-25T00:18:44.147Z,20.83
2022-07-25T00:21:47.022Z,20.82
2022-07-25T00:24:49.713Z,20.80
2022-07-25T00:27:53.775Z,20.80
2022-07-25T00:30:56.701Z,20.80
2022-07-25T00:33:59.442Z,20.77
2022-07-25T00:37:02.153Z,20.76
2022-07-25T00:40:06.025Z,20.77
2022-07-25T00:43:10.072Z,20.77
2022-07-25T00:46:14.235Z,20.73
2022-07-25T00:49:21.922Z,20.71
2022-07-25T00:52:24.703Z,20.70
2022-07-25T00:55:28.400Z,20.66
2022-07-25T00:58:32.648Z,20.66
2022-07-25T01:01:35.448Z,20.63
2022-07-25T01:04:38.272Z,20.63
2022-07-25T01:07:41.192Z,20.59
2022-07-25T01:10:44.153Z,20.56
2022-07-25T01:13:48.254Z,20.54
2022-07-25T01:16:51.166Z,20.46
2022-07-25T01:19:53.943Z,20.40
2022-07-25T01:22:58.657Z,20.36
2022-07-25T01:26:01.360Z,20.38
2022-07-25T01:29:04.732Z,20.30
2022-07-25T01:32:07.620Z,20.37
2022-07-25T01:35:12.276Z,20.39
2022-07-25T01:38:16.816Z,20.37
2022-07-25T01:41:22.638Z,20.33
2022-07-25T01:44:26.068Z,20.29
2022-07-25T01:47:28.782Z,20.23
2022-07-25T01:50:31.559Z,20.24
2022-07-25T01:53:35.628Z,20.26
2022-07-25T01:56:43.600Z,20.23
2022-07-25T01:59:49.787Z,20.21
2022-07-25T02:03:13.357Z,20.18
2022-07-25T02:06:16.116Z,20.18
2022-07-25T02:09:20.191Z,20.16
2022-07-25T02:12:22.864Z,20.12
2022-07-25T02:15:25.574Z,20.12
2022-07-25T02:18:28.300Z,20.08
2022-07-25T02:21:31.033Z,20.07
2022-07-25T02:24:37.124Z,19.99
2022-07-25T02:27:39.845Z,20.06
2022-07-25T02:30:42.598Z,20.02
2022-07-25T02:33:45.478Z,20.09
2022-07-25T02:36:48.333Z,20.11
2022-07-25T02:39:52.405Z,20.08
2022-07-25T02:42:55.094Z,20.10
2022-07-25T02:45:58.053Z,20.10
2022-07-25T02:49:01.135Z,20.08
2022-07-25T02:52:04.099Z,20.08
2022-07-25T02:55:09.953Z,20.06
2022-07-25T02:58:12.816Z,20.06
2022-07-25T03:01:16.068Z,20.09
2022-07-25T03:04:18.895Z,20.08
2022-07-25T03:07:22.659Z,20.07
2022-07-25T03:10:26.849Z,20.03
2022-07-25T03:13:29.602Z,20.05
2022-07-25T03:16:32.592Z,20.02
2022-07-25T03:19:35.393Z,20.00
2022-07-25T03:22:38.390Z,20.00
2022-07-25T03:25:42.505Z,20.00
2022-07-25T03:28:45.253Z,19.93
2022-07-25T03:31:48.488Z,19.96
2022-07-25T03:34:51.232Z,19.86
2022-07-25T03:37:53.976Z,19.79
2022-07-25T03:40:58.099Z,19.83
2022-07-25T03:44:00.898Z,19.85
2022-07-25T03:47:03.577Z,19.89
2022-07-25T03:50:07.041Z,19.81
2022-07-25T03:53:10.423Z,19.84
2022-07-25T03:56:14.525Z,19.74
2022-07-25T03:59:20.103Z,19.83
2022-07-25T04:02:22.875Z,19.76
2022-07-25T04:05:25.996Z,19.79
2022-07-25T04:08:28.728Z,19.75
2022-07-25T04:11:32.844Z,19.73
2022-07-25T04:14:35.597Z,19.73
2022-07-25T04:17:38.859Z,19.71
2022-07-25T04:20:42.367Z,19.66
2022-07-25T04:23:45.089Z,19.67
2022-07-25T04:26:49.099Z,19.60
2022-07-25T04:29:52.131Z,19.62
2022-07-25T04:32:54.811Z,19.69
2022-07-25T04:35:57.553Z,19.71
2022-07-25T04:39:00.262Z,19.76
2022-07-25T04:42:04.732Z,19.84
2022-07-25T04:45:08.681Z,19.90
2022-07-25T04:48:11.398Z,19.98
2022-07-25T04:51:14.110Z,20.03
2022-07-25T04:54:16.801Z,20.12
2022-07-25T04:57:20.913Z,20.20
2022-07-25T05:00:24.354Z,20.31
2022-07-25T05:03:27.687Z,20.39
2022-07-25T05:06:30.516Z,20.50
2022-07-25T05:09:33.218Z,20.66
2022-07-25T05:12:37.332Z,20.76
2022-07-25T05:15:40.051Z,20.86
2022-07-25T05:18:42.798Z,21.01
2022-07-25T05:21:45.467Z,21.09
2022-07-25T05:24:48.666Z,21.25
2022-07-25T05:27:54.619Z,21.37
2022-07-25T05:30:57.323Z,21.47
2022-07-25T05:34:00.290Z,21.58
2022-07-25T05:37:03.077Z,21.74
2022-07-25T05:40:07.400Z,21.83
2022-07-25T05:43:11.466Z,22.05
2022-07-25T05:46:14.841Z,22.26
2022-07-25T05:49:17.769Z,22.41
2022-07-25T05:52:20.512Z,22.54
2022-07-25T05:55:23.314Z,22.81
2022-07-25T05:58:30.109Z,22.78
2022-07-25T06:01:33.072Z,22.94
2022-07-25T06:04:35.921Z,23.11
2022-07-25T06:07:38.826Z,23.20
2022-07-25T06:10:42.505Z,23.29
2022-07-25T06:13:47.565Z,23.53
2022-07-25T06:16:50.638Z,23.66
2022-07-25T06:19:54.221Z,23.79
2022-07-25T06:22:57.336Z,24.02
2022-07-25T06:26:00.305Z,24.16
2022-07-25T06:29:04.926Z,24.34
2022-07-25T06:32:07.934Z,24.38
2022-07-25T06:35:11.208Z,24.77
2022-07-25T06:38:14.027Z,25.02
2022-07-25T06:41:17.056Z,25.02
2022-07-25T06:44:21.300Z,25.18
2022-07-25T06:47:24.101Z,25.30
2022-07-25T06:50:27.439Z,25.46
2022-07-25T06:53:30.271Z,25.61
2022-07-25T06:56:33.114Z,25.91
2022-07-25T06:59:37.341Z,26.09
2022-07-25T07:02:50.323Z,26.09
2022-07-25T07:05:53.389Z,26.28
2022-07-25T07:08:56.236Z,26.54
2022-07-25T07:11:59.005Z,26.65
2022-07-25T07:15:03.118Z,26.76
2022-07-25T07:18:06.552Z,26.93
2022-07-25T07:21:10.655Z,27.04
2022-07-25T07:24:24.181Z,27.16
2022-07-25T07:27:27.414Z,27.46
2022-07-25T07:30:58.732Z,27.56
2022-07-25T07:33:55.201Z,27.68
2022-07-25T07:36:57.927Z,27.87
2022-07-25T07:40:00.679Z,27.93
2022-07-25T07:43:04.013Z,28.12
2022-07-25T07:46:08.572Z,28.12
2022-07-25T07:49:11.919Z,28.18
2022-07-25T07:52:14.963Z,28.35
2022-07-25T07:55:35.593Z,28.41
2022-07-25T07:58:38.674Z,28.52
2022-07-25T08:01:42.825Z,28.54
2022-07-25T08:04:45.626Z,28.66
2022-07-25T08:07:48.533Z,28.68
2022-07-25T08:10:58.965Z,28.77
2022-07-25T08:14:02.223Z,28.92
2022-07-25T08:17:06.360Z,28.99
2022-07-25T08:20:36.447Z,29.06
2022-07-25T08:23:34.727Z,29.12
2022-07-25T08:26:37.515Z,29.02
2022-07-25T08:29:40.861Z,29.15
2022-07-25T08:32:53.594Z,29.17
2022-07-25T08:35:58.866Z,29.39
2022-07-25T08:39:01.779Z,29.38
2022-07-25T08:42:09.206Z,29.38
2022-07-25T08:45:16.328Z,29.61
2022-07-25T08:48:23.010Z,29.51
2022-07-25T08:51:26.030Z,29.68
2022-07-25T08:54:29.106Z,29.70
2022-07-25T08:57:32.003Z,29.71
2022-07-25T09:00:34.774Z,29.86
2022-07-25T09:03:40.351Z,29.77
2022-07-25T09:06:50.403Z,29.74
2022-07-25T09:09:53.150Z,29.72
2022-07-25T09:12:57.793Z,29.79
2022-07-25T09:16:00.859Z,29.81
2022-07-25T09:19:13.645Z,29.91
2022-07-25T09:22:16.696Z,30.08
2022-07-25T09:25:25.158Z,30.14
2022-07-25T09:28:27.930Z,30.24
2022-07-25T09:31:35.004Z,30.29
2022-07-25T09:34:40.381Z,30.34
2022-07-25T09:37:43.149Z,30.42
2022-07-25T09:40:55.688Z,30.37
2022-07-25T09:43:58.506Z,30.36
2022-07-25T09:47:11.341Z,30.58
2022-07-25T09:50:15.472Z,30.64
2022-07-25T09:53:18.765Z,30.86
2022-07-25T09:56:21.531Z,30.82
2022-07-25T09:59:24.277Z,30.95
2022-07-25T10:02:38.967Z,31.00
2022-07-25T10:05:56.580Z,30.93
2022-07-25T10:09:00.308Z,31.00
2022-07-25T10:12:07.457Z,30.94
2022-07-25T10:15:12.314Z,30.90
2022-07-25T10:18:15.963Z,30.92
2022-07-25T10:21:28.975Z,30.90
2022-07-25T10:24:34.781Z,31.28
2022-07-25T10:27:44.602Z,31.06
2022-07-25T10:30:47.675Z,31.18
2022-07-25T10:33:56.874Z,31.12
2022-07-25T10:37:11.993Z,31.12
2022-07-25T10:40:27.951Z,31.23
2022-07-25T10:43:37.472Z,31.19
2022-07-25T10:46:40.501Z,31.31
2022-07-25T10:50:13.235Z,31.29
2022-07-25T10:53:09.239Z,31.42
2022-07-25T10:56:14.910Z,31.41
2022-07-25T10:59:27.219Z,31.41
2022-07-25T11:02:30.092Z,31.32
2022-07-25T11:05:32.912Z,31.52
2022-07-25T11:08:37.191Z,31.54
2022-07-25T11:11:43.183Z,31.50
2022-07-25T11:14:47.548Z,31.45
2022-07-25T11:17:52.169Z,31.58
2022-07-25T11:21:04.237Z,31.65
2022-07-25T11:24:10.303Z,31.84
2022-07-25T11:27:22.680Z,31.94
2022-07-25T11:30:25.526Z,32.01
2022-07-25T11:33:28.702Z,32.23
2022-07-25T11:36:31.592Z,32.06
2022-07-25T11:39:37.754Z,32.16
2022-07-25T11:42:41.754Z,32.12
2022-07-25T11:45:44.652Z,32.06
2022-07-25T11:48:48.156Z,32.14
2022-07-25T11:51:50.938Z,32.01
2022-07-25T11:54:57.404Z,32.19
2022-07-25T11:58:01.989Z,32.24
2022-07-25T12:01:13.135Z,32.51
2022-07-25T12:04:17.680Z,32.23
2022-07-25T12:07:20.510Z,32.29
2022-07-25T12:10:32.581Z,32.42
2022-07-25T12:13:37.140Z,32.58
2022-07-25T12:16:40.728Z,32.79
2022-07-25T12:19:46.926Z,32.66
2022-07-25T12:22:50.799Z,32.56
2022-07-25T12:25:54.945Z,32.45
2022-07-25T12:28:57.663Z,32.47
2022-07-25T12:32:00.420Z,32.56
2022-07-25T12:35:03.554Z,32.60
2022-07-25T12:38:06.518Z,32.78
2022-07-25T12:41:13.493Z,33.10
2022-07-25T12:44:18.726Z,32.92
2022-07-25T12:47:21.757Z,32.81
2022-07-25T12:50:25.733Z,32.97
2022-07-25T12:53:28.566Z,33.00
2022-07-25T12:56:32.630Z,33.15
2022-07-25T12:59:35.372Z,33.14
2022-07-25T13:02:38.882Z,33.46
2022-07-25T13:05:42.099Z,33.37
2022-07-25T13:08:45.593Z,33.27
2022-07-25T13:11:50.562Z,33.19
2022-07-25T13:14:53.573Z,33.14
2022-07-25T13:17:56.326Z,33.51
2022-07-25T13:21:00.611Z,33.31
2022-07-25T13:24:03.358Z,33.37
2022-07-25T13:27:07.939Z,33.43
2022-07-25T13:30:11.686Z,33.44
2022-07-25T13:33:14.480Z,33.51
2022-07-25T13:36:17.341Z,33.59
2022-07-25T13:39:22.323Z,33.47
2022-07-25T13:42:26.462Z,33.34
2022-07-25T13:45:29.437Z,33.36
2022-07-25T13:48:32.600Z,33.54
2022-07-25T13:51:35.454Z,33.87
2022-07-25T13:54:38.679Z,33.69
2022-07-25T13:57:42.779Z,33.74
2022-07-25T14:00:46.068Z,33.76
2022-07-25T14:03:48.941Z,33.87
2022-07-25T14:06:52.832Z,33.86
2022-07-25T14:09:55.665Z,33.84
2022-07-25T14:12:59.731Z,33.86
2022-07-25T14:16:02.938Z,33.71
2022-07-25T14:19:06.115Z,33.68
2022-07-25T14:22:09.139Z,33.93
2022-07-25T14:25:12.935Z,33.82
2022-07-25T14:28:17.095Z,33.89
2022-07-25T14:31:21.256Z,33.97
2022-07-25T14:34:24.177Z,33.81
2022-07-25T14:37:26.948Z,33.82
2022-07-25T14:40:29.700Z,33.80
2022-07-25T14:43:33.897Z,33.57
2022-07-25T14:46:36.970Z,33.36
2022-07-25T14:49:40.992Z,33.18
2022-07-25T14:52:43.695Z,33.05
2022-07-25T14:55:46.459Z,33.17
2022-07-25T14:58:50.604Z,33.10
2022-07-25T15:01:53.378Z,33.11
2022-07-25T15:04:56.237Z,33.12
2022-07-25T15:07:59.022Z,32.92
2022-07-25T15:11:01.840Z,32.81
2022-07-25T15:14:05.900Z,32.87
2022-07-25T15:17:08.694Z,33.16
2022-07-25T15:20:12.289Z,33.32
2022-07-25T15:23:15.219Z,33.26
2022-07-25T15:26:17.997Z,33.42
2022-07-25T15:29:22.126Z,33.25
2022-07-25T15:32:25.045Z,33.21
2022-07-25T15:35:28.063Z,33.18
2022-07-25T15:38:30.925Z,33.13
2022-07-25T15:41:33.659Z,33.24
2022-07-25T15:44:37.976Z,33.26
2022-07-25T15:47:41.399Z,33.33
2022-07-25T15:50:45.812Z,33.26
2022-07-25T15:53:48.636Z,33.10
2022-07-25T15:56:51.398Z,32.99
2022-07-25T15:59:58.335Z,33.14
2022-07-25T16:03:01.074Z,33.04
2022-07-25T16:06:04.583Z,32.89
2022-07-25T16:09:08.280Z,32.76
2022-07-25T16:12:12.046Z,32.77
2022-07-25T16:15:16.382Z,32.67
2022-07-25T16:18:19.280Z,32.58
2022-07-25T16:21:21.972Z,32.47
2022-07-25T16:24:24.959Z,32.39
2022-07-25T16:27:27.800Z,32.30
2022-07-25T16:30:31.931Z,32.25
2022-07-25T16:33:34.753Z,32.19
2022-07-25T16:36:37.601Z,32.12
2022-07-25T16:39:40.549Z,32.14
2022-07-25T16:42:55.726Z,32.22
2022-07-25T16:49:31.887Z,32.39
2022-07-25T16:52:34.645Z,32.50
2022-07-25T16:55:37.514Z,32.56
2022-07-25T16:58:40.466Z,32.61
2022-07-25T17:01:46.423Z,32.59
2022-07-25T17:04:49.408Z,32.53
2022-07-25T17:07:58.815Z,32.36
2022-07-25T17:11:02.607Z,32.21
2022-07-25T17:14:05.389Z,32.11
2022-07-25T17:17:09.660Z,32.04
2022-07-25T17:20:13.190Z,31.97
2022-07-25T17:23:16.027Z,31.94
2022-07-25T17:26:19.326Z,31.84
2022-07-25T17:29:22.312Z,31.72
2022-07-25T17:32:30.010Z,31.70
2022-07-25T17:35:33.221Z,31.63
2022-07-25T17:38:36.175Z,30.72
2022-07-25T17:41:38.976Z,29.94
2022-07-25T17:44:41.842Z,29.04
2022-07-25T17:47:46.038Z,28.69
2022-07-25T17:50:49.033Z,28.48
2022-07-25T17:53:51.845Z,28.18
2022-07-25T17:56:54.606Z,28.06
2022-07-25T17:59:57.640Z,28.08
2022-07-25T18:03:01.802Z,27.91
2022-07-25T18:06:05.027Z,27.87
2022-07-25T18:09:08.596Z,27.93
2022-07-25T18:12:11.314Z,27.62
2022-07-25T18:15:15.072Z,27.48
2022-07-25T18:18:20.750Z,27.54
2022-07-25T18:21:24.449Z,27.52
2022-07-25T18:24:29.360Z,27.68
2022-07-25T18:27:32.476Z,27.75
2022-07-25T18:30:35.241Z,27.77
2022-07-25T18:33:39.361Z,27.72
2022-07-25T18:36:42.982Z,27.50
2022-07-25T18:39:45.792Z,27.24
2022-07-25T18:42:48.568Z,27.39
2022-07-25T18:45:51.605Z,27.47
2022-07-25T18:48:55.886Z,27.56
2022-07-25T18:51:58.683Z,27.62
2022-07-25T18:55:01.659Z,27.38
2022-07-25T18:58:06.055Z,27.09
2022-07-25T19:01:09.225Z,27.22
2022-07-25T19:04:13.416Z,27.03
2022-07-25T19:07:16.774Z,26.75
2022-07-25T19:10:19.624Z,26.62
2022-07-25T19:13:47.671Z,26.37
2022-07-25T19:16:45.155Z,26.24
2022-07-25T19:19:52.709Z,26.30
2022-07-25T19:22:58.357Z,26.37
2022-07-25T19:26:02.797Z,26.37
2022-07-25T19:29:06.855Z,26.26
2022-07-25T19:32:09.702Z,26.32
2022-07-25T19:35:14.355Z,26.21
2022-07-25T19:38:17.066Z,26.16
2022-07-25T19:41:19.854Z,26.27
2022-07-25T19:44:22.674Z,26.15
2022-07-25T19:47:25.442Z,26.10
2022-07-25T19:50:29.738Z,26.08
2022-07-25T19:53:33.154Z,25.77
2022-07-25T19:56:35.988Z,25.68
2022-07-25T19:59:38.732Z,25.62
2022-07-25T20:02:43.375Z,25.40
2022-07-25T20:05:47.523Z,25.12
2022-07-25T20:08:50.210Z,25.16
2022-07-25T20:11:53.014Z,25.11
2022-07-25T20:14:55.743Z,25.13
2022-07-25T20:17:58.699Z,25.24
2022-07-25T20:21:02.870Z,25.15
2022-07-25T20:24:06.075Z,25.02
2022-07-25T20:27:08.804Z,25.11
2022-07-25T20:30:13.353Z,24.55
2022-07-25T20:33:17.277Z,24.43
2022-07-25T20:36:21.561Z,24.17
2022-07-25T20:39:24.291Z,24.47
2022-07-25T20:42:27.061Z,24.43
2022-07-25T20:45:29.775Z,23.91
2022-07-25T20:48:32.559Z,23.81
2022-07-25T20:51:37.365Z,23.86
2022-07-25T20:54:42.158Z,23.93
2022-07-25T20:57:50.122Z,23.78
2022-07-25T21:00:53.386Z,23.57
2022-07-25T21:03:56.330Z,23.53
2022-07-25T21:07:00.443Z,23.39
2022-07-25T21:10:03.203Z,23.55
2022-07-25T21:13:06.185Z,23.68
2022-07-25T21:16:09.290Z,23.22
2022-07-25T21:19:12.110Z,23.07
2022-07-25T21:22:16.572Z,22.71
2022-07-25T21:25:19.327Z,22.57
2022-07-25T21:28:22.159Z,22.90
2022-07-25T21:31:25.156Z,22.79
2022-07-25T21:34:27.902Z,22.93
2022-07-25T21:37:32.191Z,23.01
2022-07-25T21:40:35.244Z,22.89
2022-07-25T21:43:37.983Z,22.65
2022-07-25T21:46:40.673Z,22.77
2022-07-25T21:50:02.874Z,22.87
2022-07-25T21:53:11.798Z,22.96
2022-07-25T21:56:15.475Z,22.71
2022-07-25T21:59:18.193Z,22.40
2022-07-25T22:02:20.916Z,22.27
2022-07-25T22:05:24.749Z,22.42
2022-07-25T22:08:29.058Z,22.33
2022-07-25T22:11:38.889Z,22.23
2022-07-25T22:14:48.456Z,22.07
2022-07-25T22:17:51.361Z,22.02
2022-07-25T22:20:54.309Z,22.18
2022-07-25T22:23:58.367Z,22.33
2022-07-25T22:27:01.098Z,22.49
2022-07-25T22:30:04.716Z,22.65
2022-07-25T22:33:07.435Z,22.64
2022-07-25T22:36:10.629Z,22.61
2022-07-25T22:39:14.642Z,22.49
2022-07-25T22:42:17.327Z,22.50
2022-07-25T22:45:22.442Z,22.39
2022-07-25T22:48:25.169Z,22.27
2022-07-25T22:51:28.932Z,22.22
2022-07-25T22:54:33.174Z,22.04
2022-07-25T22:57:37.214Z,22.04
2022-07-25T23:00:40.351Z,21.95
2022-07-25T23:03:43.116Z,21.94
2022-07-25T23:06:46.486Z,21.92
2022-07-25T23:09:50.542Z,21.86
2022-07-25T23:12:53.285Z,21.84
2022-07-25T23:15:56.208Z,21.75
2022-07-25T23:18:58.956Z,21.70
2022-07-25T23:22:01.696Z,21.55
2022-07-25T23:25:06.983Z,21.53
2022-07-25T23:28:09.781Z,21.35
2022-07-25T23:31:12.503Z,21.35
2022-07-25T23:34:15.343Z,21.36
2022-07-25T23:37:18.080Z,21.35
2022-07-25T23:40:22.233Z,21.25
2022-07-25T23:43:49.575Z,21.27
2022-07-25T23:46:47.875Z,21.26
2022-07-25T23:49:50.613Z,21.25
2022-07-25T23:52:53.498Z,21.19
2022-07-25T23:55:57.542Z,21.13
2022-07-25T23:59:00.284Z,21.09
